Doucette, Texas
Current Conditions -  °F | °C
As of 11:55 PM on Wednesday 22 Oct 2014 (Local Time) from KJAS Reporting Station
Clear Clear  
Wind Chill: 60°   Ceiling: Unl
Heat Index: 60°   Visibility: 10mi
Dew Point: 54°   Wind: 5mph
Humidity: 80%   Direction: 60°ENE
Pressure: 30.14"   Gusts: NA
Location:  30.82°N, 94.43°W
Report Text: KJAS 230455Z AUTO 06004KT 10SM CLR 15/12 A3014 RMK AO2 T01540120
Loading
Personal Weather Stations






























Interactive Weather Map New forecast layout! Learn more

10-Day Weather Forecast

Advertisements
Track Severe Weather on mobile